MSC Susanna — 3ECU4 — position and weather

sailwx.info

Track history (hours):
 
Tides and Currents Weather Stations Pressure Air Temp Water Temp Dewpoint Dewpoint Depression Visibility Wind Speed Wind Dir Waves Ship Positions

MSC Susanna

Last reported at 2014-Oct-17 11:30 UTC. Time now 2014-Oct-31 10:50 UTC.
Position N 38°28' E 015°55'.
Warning: this ship's position is 13 days out of date.

Length 337 m; draft 13.3 m.

Type: Ship (hazmat cat A). MMSI: 371466000.

Date/timePositionNaut miles runAvg speedWind from/ knotsBaromVisibWave heightAir tempDewpointWater temp
2014-Oct-17 11:30N 38°28' E 015°55'0 0.0
2014-Oct-17 10:30N 38°28' E 015°55'20 2.2
2014-Oct-17 01:20N 38°24' E 015°30'1417.7
2014-Oct-17 00:33N 38°21' E 015°13'  
2014-Oct-14 18:22N 36°00' W 005°12'17418.9
2014-Oct-14 09:08N 36°27' W 008°45'1118.9
2014-Oct-14 08:33N 36°30' W 008°58'7417.2
2014-Oct-14 04:16N 37°33' W 009°46'1318.4
2014-Oct-14 03:33N 37°46' W 009°50'1818.6
2014-Oct-14 02:33N 38°04' W 009°55'83617.4
2014-Oct-12 02:25N 50°22' W 000°48'3919.1
2014-Oct-12 00:23N 50°32' E 000°11'1417.3
2014-Oct-11 23:33N 50°36' E 000°33'1717.3
2014-Oct-11 22:33N 50°44' E 000°57'2019.3
2014-Oct-11 21:32N 50°57' E 001°21'2121.5
2014-Oct-11 20:34N 51°12' E 001°43'1717.2
2014-Oct-11 19:34N 51°25' E 002°02'1917.6
2014-Oct-11 18:30N 51°23' E 002°31'1414.3
2014-Oct-11 17:33N 51°25' E 002°53'1515.3
2014-Oct-11 16:33N 51°24' E 003°18'1312.9
2014-Oct-11 15:33N 51°26' E 003°38'1110.9
2014-Oct-11 14:33N 51°21' E 003°53'6 6.3
2014-Oct-11 13:33N 51°22' E 004°03'9 8.7
2014-Oct-11 12:33N 51°21' E 004°17'0 0.2
2014-Oct-11 11:34N 51°21' E 004°17'1 1.5
2014-Oct-11 10:33N 51°19' E 004°19'1 0.6
2014-Oct-11 09:31N 51°19' E 004°20'0 0.0
2014-Oct-11 08:28N 51°19' E 004°20'0 0.0
2014-Oct-11 07:31N 51°19' E 004°20'0 0.0
2014-Oct-11 06:28N 51°19' E 004°20'0 0.0
2014-Oct-11 05:31N 51°19' E 004°20'0 0.0
2014-Oct-11 04:31N 51°19' E 004°20'0 0.0
2014-Oct-11 03:31N 51°19' E 004°20'0 0.0
2014-Oct-11 02:31N 51°19' E 004°20'0 0.0
2014-Oct-11 01:28N 51°19' E 004°20'0 0.0
2014-Oct-11 00:31N 51°19' E 004°20'0 0.0
2014-Oct-10 23:28N 51°19' E 004°20'0 0.0
2014-Oct-10 22:31N 51°19' E 004°20'0 0.0
2014-Oct-10 21:28N 51°19' E 004°20'0 0.0
2014-Oct-10 20:31N 51°19' E 004°20'0 0.0
2014-Oct-10 19:31N 51°19' E 004°20'0 0.0
2014-Oct-10 18:31N 51°19' E 004°20'0 0.0
2014-Oct-10 17:31N 51°19' E 004°20'0 0.0
2014-Oct-10 16:31N 51°19' E 004°20'0 0.0
2014-Oct-10 15:31N 51°19' E 004°20'0 0.0
2014-Oct-10 14:28N 51°19' E 004°20'0 0.0
2014-Oct-10 13:28N 51°19' E 004°20'0 0.0
2014-Oct-10 12:28N 51°19' E 004°20'0 0.0
2014-Oct-10 11:31N 51°19' E 004°20'0 0.0
2014-Oct-10 10:28N 51°19' E 004°20'0 0.0
2014-Oct-10 09:31N 51°19' E 004°20'0 0.0
2014-Oct-10 08:34N 51°19' E 004°20'0 0.0
2014-Oct-10 07:33N 51°19' E 004°20'0 0.0
2014-Oct-10 06:24N 51°19' E 004°20'0 0.0
2014-Oct-10 05:33N 51°19' E 004°20'0 0.0
2014-Oct-10 04:33N 51°19' E 004°20'0 0.0
2014-Oct-10 03:27N 51°19' E 004°20'1 0.6
2014-Oct-10 02:33N 51°19' E 004°19'2 1.6
2014-Oct-10 01:33N 51°21' E 004°17'3 2.6
2014-Oct-10 00:34N 51°22' E 004°13'1010.2
2014-Oct-09 23:34N 51°25' E 003°58'1111.5
2014-Oct-09 22:33N 51°26' E 003°39'1414.0
2014-Oct-09 21:34N 51°24' E 003°17'1110.2
2014-Oct-09 20:31N 51°29' E 003°02'1515.9
2014-Oct-09 19:33N 51°43' E 003°14'1010.0
2014-Oct-09 18:33N 51°52' E 003°17'1817.2
2014-Oct-09 17:30N 52°10' E 003°22'1516.3
2014-Oct-09 16:33N 52°25' E 003°27'7016.1
2014-Oct-09 12:11N 53°23' E 004°34'1116.9
2014-Oct-09 11:33N 53°31' E 004°45'1818.4
2014-Oct-09 10:34N 53°37' E 005°15'1717.5
2014-Oct-09 09:34N 53°43' E 005°42'1716.8
2014-Oct-09 08:33N 53°48' E 006°10'1816.5
2014-Oct-09 07:29N 53°52' E 006°39'2317.1
2014-Oct-09 06:08N 53°57' E 007°17'1018.2
2014-Oct-09 05:33N 54°00' E 007°34'1818.5
2014-Oct-09 04:33N 54°01' E 008°05'1616.4
2014-Oct-09 03:33N 53°58' E 008°33'1414.5
2014-Oct-09 02:33N 53°51' E 008°54'1212.1
2014-Oct-09 01:33N 53°53' E 009°14'1111.1
2014-Oct-09 00:33N 53°44' E 009°26'9 9.4
2014-Oct-08 23:33N 53°36' E 009°35'8 7.7
2014-Oct-08 22:33N 53°33' E 009°47'5 4.6
2014-Oct-08 21:33N 53°32' E 009°54'0 0.0
2014-Oct-08 20:33N 53°32' E 009°54'0 0.0
2014-Oct-08 19:33N 53°32' E 009°54'0 0.0
2014-Oct-08 18:33N 53°32' E 009°54'0 0.0
2014-Oct-08 17:33N 53°32' E 009°54'0 0.0
2014-Oct-08 16:30N 53°32' E 009°54'0 0.0
2014-Oct-08 15:33N 53°32' E 009°54'0 0.0
2014-Oct-08 14:27N 53°32' E 009°54'0 0.0
2014-Oct-08 13:33N 53°32' E 009°54'0 0.0
2014-Oct-08 12:33N 53°32' E 009°54'0 0.0
2014-Oct-08 11:33N 53°32' E 009°54'0 0.0
2014-Oct-08 10:33N 53°32' E 009°54'0 0.0
2014-Oct-08 09:33N 53°32' E 009°54'0 0.0
2014-Oct-08 08:33N 53°32' E 009°54'0 0.0
2014-Oct-08 07:33N 53°32' E 009°54'0 0.0
2014-Oct-08 06:33N 53°32' E 009°54'0 0.0
2014-Oct-08 05:33N 53°32' E 009°54'0 0.0
2014-Oct-08 04:33N 53°32' E 009°54'0 0.0
2014-Oct-08 03:33N 53°32' E 009°54'0 0.0
2014-Oct-08 02:33N 53°32' E 009°54'0 0.0
2014-Oct-08 01:33N 53°32' E 009°54'0 0.0
2014-Oct-08 00:33N 53°32' E 009°54'0 0.0
2014-Oct-07 23:33N 53°32' E 009°54'3 3.4
2014-Oct-07 22:33N 53°33' E 009°49'1211.8
2014-Oct-07 21:33N 53°39' E 009°31'1212.0
2014-Oct-07 20:33N 53°49' E 009°22'1111.2
2014-Oct-07 19:33N 53°52' E 009°03'1312.6
2014-Oct-07 18:34N 53°53' E 008°42'1010.2
2014-Oct-07 17:33N 53°59' E 008°27'1111.4
2014-Oct-07 16:33N 53°60' E 008°08'4 4.2
2014-Oct-07 15:33N 53°59' E 008°01'7 6.6
2014-Oct-07 14:33N 53°58' E 007°50'6 6.4
2014-Oct-07 13:33N 53°56' E 007°39'6 6.2
2014-Oct-07 12:32N 53°54' E 007°29'  
Track history (hours):
 
Tides and Currents Weather Stations Pressure Air Temp Water Temp Dewpoint Dewpoint Depression Visibility Wind Speed Wind Dir Waves Ship Positions

MSC Susanna

Last reported at 2014-Oct-17 11:30 UTC. Time now 2014-Oct-31 10:50 UTC.
Position N 38°28' E 015°55'.
Warning: this ship's position is 13 days out of date.

Length 337 m; draft 13.3 m.

Type: Ship (hazmat cat A). MMSI: 371466000.

Date/timePositionNaut miles runAvg speedWind from/ knotsBaromVisibWave heightAir tempDewpointWater temp
2014-Oct-17 11:30N 38°28' E 015°55'0 0.0
2014-Oct-17 10:30N 38°28' E 015°55'20 2.2
2014-Oct-17 01:20N 38°24' E 015°30'1417.7
2014-Oct-17 00:33N 38°21' E 015°13'  
2014-Oct-14 18:22N 36°00' W 005°12'17418.9
2014-Oct-14 09:08N 36°27' W 008°45'1118.9
2014-Oct-14 08:33N 36°30' W 008°58'7417.2
2014-Oct-14 04:16N 37°33' W 009°46'1318.4
2014-Oct-14 03:33N 37°46' W 009°50'1818.6
2014-Oct-14 02:33N 38°04' W 009°55'83617.4
2014-Oct-12 02:25N 50°22' W 000°48'3919.1
2014-Oct-12 00:23N 50°32' E 000°11'1417.3
2014-Oct-11 23:33N 50°36' E 000°33'1717.3
2014-Oct-11 22:33N 50°44' E 000°57'2019.3
2014-Oct-11 21:32N 50°57' E 001°21'2121.5
2014-Oct-11 20:34N 51°12' E 001°43'1717.2
2014-Oct-11 19:34N 51°25' E 002°02'1917.6
2014-Oct-11 18:30N 51°23' E 002°31'1414.3
2014-Oct-11 17:33N 51°25' E 002°53'1515.3
2014-Oct-11 16:33N 51°24' E 003°18'1312.9
2014-Oct-11 15:33N 51°26' E 003°38'1110.9
2014-Oct-11 14:33N 51°21' E 003°53'6 6.3
2014-Oct-11 13:33N 51°22' E 004°03'9 8.7
2014-Oct-11 12:33N 51°21' E 004°17'0 0.2
2014-Oct-11 11:34N 51°21' E 004°17'1 1.5
2014-Oct-11 10:33N 51°19' E 004°19'1 0.6
2014-Oct-11 09:31N 51°19' E 004°20'0 0.0
2014-Oct-11 08:28N 51°19' E 004°20'0 0.0
2014-Oct-11 07:31N 51°19' E 004°20'0 0.0
2014-Oct-11 06:28N 51°19' E 004°20'0 0.0
2014-Oct-11 05:31N 51°19' E 004°20'0 0.0
2014-Oct-11 04:31N 51°19' E 004°20'0 0.0
2014-Oct-11 03:31N 51°19' E 004°20'0 0.0
2014-Oct-11 02:31N 51°19' E 004°20'0 0.0
2014-Oct-11 01:28N 51°19' E 004°20'0 0.0
2014-Oct-11 00:31N 51°19' E 004°20'0 0.0
2014-Oct-10 23:28N 51°19' E 004°20'0 0.0
2014-Oct-10 22:31N 51°19' E 004°20'0 0.0
2014-Oct-10 21:28N 51°19' E 004°20'0 0.0
2014-Oct-10 20:31N 51°19' E 004°20'0 0.0
2014-Oct-10 19:31N 51°19' E 004°20'0 0.0
2014-Oct-10 18:31N 51°19' E 004°20'0 0.0
2014-Oct-10 17:31N 51°19' E 004°20'0 0.0
2014-Oct-10 16:31N 51°19' E 004°20'0 0.0
2014-Oct-10 15:31N 51°19' E 004°20'0 0.0
2014-Oct-10 14:28N 51°19' E 004°20'0 0.0
2014-Oct-10 13:28N 51°19' E 004°20'0 0.0
2014-Oct-10 12:28N 51°19' E 004°20'0 0.0
2014-Oct-10 11:31N 51°19' E 004°20'0 0.0
2014-Oct-10 10:28N 51°19' E 004°20'0 0.0
2014-Oct-10 09:31N 51°19' E 004°20'0 0.0
2014-Oct-10 08:34N 51°19' E 004°20'0 0.0
2014-Oct-10 07:33N 51°19' E 004°20'0 0.0
2014-Oct-10 06:24N 51°19' E 004°20'0 0.0
2014-Oct-10 05:33N 51°19' E 004°20'0 0.0
2014-Oct-10 04:33N 51°19' E 004°20'0 0.0
2014-Oct-10 03:27N 51°19' E 004°20'1 0.6
2014-Oct-10 02:33N 51°19' E 004°19'2 1.6
2014-Oct-10 01:33N 51°21' E 004°17'3 2.6
2014-Oct-10 00:34N 51°22' E 004°13'1010.2
2014-Oct-09 23:34N 51°25' E 003°58'1111.5
2014-Oct-09 22:33N 51°26' E 003°39'1414.0
2014-Oct-09 21:34N 51°24' E 003°17'1110.2
2014-Oct-09 20:31N 51°29' E 003°02'1515.9
2014-Oct-09 19:33N 51°43' E 003°14'1010.0
2014-Oct-09 18:33N 51°52' E 003°17'1817.2
2014-Oct-09 17:30N 52°10' E 003°22'1516.3
2014-Oct-09 16:33N 52°25' E 003°27'7016.1
2014-Oct-09 12:11N 53°23' E 004°34'1116.9
2014-Oct-09 11:33N 53°31' E 004°45'1818.4
2014-Oct-09 10:34N 53°37' E 005°15'1717.5
2014-Oct-09 09:34N 53°43' E 005°42'1716.8
2014-Oct-09 08:33N 53°48' E 006°10'1816.5
2014-Oct-09 07:29N 53°52' E 006°39'2317.1
2014-Oct-09 06:08N 53°57' E 007°17'1018.2
2014-Oct-09 05:33N 54°00' E 007°34'1818.5
2014-Oct-09 04:33N 54°01' E 008°05'1616.4
2014-Oct-09 03:33N 53°58' E 008°33'1414.5
2014-Oct-09 02:33N 53°51' E 008°54'1212.1
2014-Oct-09 01:33N 53°53' E 009°14'1111.1
2014-Oct-09 00:33N 53°44' E 009°26'9 9.4
2014-Oct-08 23:33N 53°36' E 009°35'8 7.7
2014-Oct-08 22:33N 53°33' E 009°47'5 4.6
2014-Oct-08 21:33N 53°32' E 009°54'0 0.0
2014-Oct-08 20:33N 53°32' E 009°54'0 0.0
2014-Oct-08 19:33N 53°32' E 009°54'0 0.0
2014-Oct-08 18:33N 53°32' E 009°54'0 0.0
2014-Oct-08 17:33N 53°32' E 009°54'0 0.0
2014-Oct-08 16:30N 53°32' E 009°54'0 0.0
2014-Oct-08 15:33N 53°32' E 009°54'0 0.0
2014-Oct-08 14:27N 53°32' E 009°54'0 0.0
2014-Oct-08 13:33N 53°32' E 009°54'0 0.0
2014-Oct-08 12:33N 53°32' E 009°54'0 0.0
2014-Oct-08 11:33N 53°32' E 009°54'0 0.0
2014-Oct-08 10:33N 53°32' E 009°54'0 0.0
2014-Oct-08 09:33N 53°32' E 009°54'0 0.0
2014-Oct-08 08:33N 53°32' E 009°54'0 0.0
2014-Oct-08 07:33N 53°32' E 009°54'0 0.0
2014-Oct-08 06:33N 53°32' E 009°54'0 0.0
2014-Oct-08 05:33N 53°32' E 009°54'0 0.0
2014-Oct-08 04:33N 53°32' E 009°54'0 0.0
2014-Oct-08 03:33N 53°32' E 009°54'0 0.0
2014-Oct-08 02:33N 53°32' E 009°54'0 0.0
2014-Oct-08 01:33N 53°32' E 009°54'0 0.0
2014-Oct-08 00:33N 53°32' E 009°54'0 0.0
2014-Oct-07 23:33N 53°32' E 009°54'3 3.4
2014-Oct-07 22:33N 53°33' E 009°49'1211.8
2014-Oct-07 21:33N 53°39' E 009°31'1212.0
2014-Oct-07 20:33N 53°49' E 009°22'1111.2
2014-Oct-07 19:33N 53°52' E 009°03'1312.6
2014-Oct-07 18:34N 53°53' E 008°42'1010.2
2014-Oct-07 17:33N 53°59' E 008°27'1111.4
2014-Oct-07 16:33N 53°60' E 008°08'4 4.2
2014-Oct-07 15:33N 53°59' E 008°01'7 6.6
2014-Oct-07 14:33N 53°58' E 007°50'6 6.4
2014-Oct-07 13:33N 53°56' E 007°39'6 6.2
2014-Oct-07 12:32N 53°54' E 007°29'  

Dump ship's entire track history